Time;durP1;ratioP1;P1;durP2;ratioP2;P2;SDS_P1;SDS_P2;PMS_P1;PMS_P2;Temp;Humidity;BMP_temperature;BMP_pressure;BME280_temperature;BME280_humidity;BME280_pressure;Samples;Min_cycle;Max_cycle;Signal;HPM_P1;HPM_P2
2022/11/25 00:03:13;;;;;;;;;;;;;;;18.96;39.87;95598.06;10436921;28;2690;-52
2022/11/25 00:08:22;;;;;;;;;;;;;;;18.97;39.71;95604.09;10429690;28;2750;-47
2022/11/25 00:13:22;;;;;;;;;;;;;;;18.96;39.81;95613.81;10435246;28;3015;-51
2022/11/25 00:18:22;;;;;;;;;;;;;;;18.96;39.77;95608.56;10422332;28;2670;-52
2022/11/25 00:23:22;;;;;;;;;;;;;;;18.90;39.96;95606.25;10439636;28;2706;-53
2022/11/25 00:28:23;;;;;;;;;;;;;;;18.94;39.85;95608.03;10430654;28;2659;-52
2022/11/25 00:33:23;;;;;;;;;;;;;;;18.95;39.80;95596.50;10431016;28;2802;-51
2022/11/25 00:38:24;;;;;;;;;;;;;;;18.96;39.83;95608.56;10433512;28;2754;-51
2022/11/25 00:48:43;;;;;;;;;;;;;;;18.98;39.62;95605.69;10437944;28;2869;-52
2022/11/25 00:53:43;;;;;;;;;;;;;;;18.98;39.51;95611.72;10441524;28;2711;-52
2022/11/25 00:58:43;;;;;;;;;;;;;;;18.97;39.26;95601.47;10438331;28;2717;-51
2022/11/25 01:03:43;;;;;;;;;;;;;;;18.95;39.49;95599.13;10423798;28;2721;-55
2022/11/25 01:08:44;;;;;;;;;;;;;;;18.96;39.13;95603.31;10433823;28;2723;-54
2022/11/25 01:13:44;;;;;;;;;;;;;;;18.97;39.28;95597.03;10422101;28;2738;-49
2022/11/25 01:18:44;;;;;;;;;;;;;;;18.92;39.01;95597.03;10437199;28;2846;-49
2022/11/25 01:23:45;;;;;;;;;;;;;;;18.97;39.21;95588.34;10436459;28;2740;-51
2022/11/25 01:28:45;;;;;;;;;;;;;;;18.96;39.05;95582.31;10434451;28;2743;-51
2022/11/25 01:33:46;;;;;;;;;;;;;;;18.94;38.89;95589.66;10437616;28;2798;-49
2022/11/25 01:38:48;;;;;;;;;;;;;;;18.95;38.78;95593.88;10426900;28;2855;-50
2022/11/25 01:44:04;;;;;;;;;;;;;;;18.94;38.81;95602.78;10437130;28;2762;-49
2022/11/25 01:49:07;;;;;;;;;;;;;;;18.92;39.08;95591.75;10440477;28;2711;-51
2022/11/25 01:54:08;;;;;;;;;;;;;;;18.92;38.73;95589.13;10441013;28;2810;-51
2022/11/25 01:59:08;;;;;;;;;;;;;;;18.93;38.85;95598.59;10446334;28;2755;-49
2022/11/25 02:04:09;;;;;;;;;;;;;;;18.92;38.70;95593.63;10456755;28;2799;-52
2022/11/25 02:09:16;;;;;;;;;;;;;;;18.89;38.43;95587.06;10434222;28;2779;-49
2022/11/25 02:14:16;;;;;;;;;;;;;;;18.91;38.66;95589.41;10447286;28;2795;-47
2022/11/25 02:19:22;;;;;;;;;;;;;;;18.91;38.55;95579.69;10448922;28;2762;-52
2022/11/25 02:24:26;;;;;;;;;;;;;;;18.88;38.14;95580.22;10433182;28;2786;-50
2022/11/25 02:29:26;;;;;;;;;;;;;;;18.90;38.57;95566.84;10441035;28;2772;-49
2022/11/25 02:34:26;;;;;;;;;;;;;;;18.90;38.44;95577.34;10436676;28;2731;-51
2022/11/25 02:39:26;;;;;;;;;;;;;;;18.89;38.30;95575.75;10439345;28;2719;-50
2022/11/25 02:44:27;;;;;;;;;;;;;;;18.89;38.47;95584.44;10441593;28;2770;-51
2022/11/25 02:49:27;;;;;;;;;;;;;;;18.93;38.48;95587.31;10437424;28;2730;-53
2022/11/25 02:54:27;;;;;;;;;;;;;;;18.90;38.38;95582.59;10434369;28;2892;-49
2022/11/25 02:59:28;;;;;;;;;;;;;;;18.89;38.34;95579.19;10443867;28;2821;-49
2022/11/25 03:04:28;;;;;;;;;;;;;;;18.92;38.20;95583.13;10430835;28;2815;-50
2022/11/25 03:09:28;;;;;;;;;;;;;;;18.88;38.21;95582.84;10434775;28;2722;-51
2022/11/25 03:14:28;;;;;;;;;;;;;;;18.88;38.23;95585.47;10460065;28;2722;-49
2022/11/25 03:19:29;;;;;;;;;;;;;;;18.91;38.14;95574.44;10437209;28;2751;-53
2022/11/25 03:24:29;;;;;;;;;;;;;;;18.88;38.03;95574.97;10440850;28;3080;-48
2022/11/25 03:29:29;;;;;;;;;;;;;;;18.87;38.09;95578.66;10445464;28;2757;-50
2022/11/25 03:34:30;;;;;;;;;;;;;;;18.88;38.12;95572.34;10441873;28;2706;-53
2022/11/25 03:39:30;;;;;;;;;;;;;;;18.90;37.89;95575.50;10436665;28;2688;-49
2022/11/25 03:44:30;;;;;;;;;;;;;;;18.87;38.05;95578.66;10439089;28;2698;-47
2022/11/25 03:49:30;;;;;;;;;;;;;;;18.88;37.97;95580.22;10433506;28;2746;-52
2022/11/25 03:54:31;;;;;;;;;;;;;;;18.91;37.98;95590.22;10426779;28;2688;-51
2022/11/25 03:59:31;;;;;;;;;;;;;;;18.87;38.01;95583.91;10444038;28;2723;-50
2022/11/25 04:04:31;;;;;;;;;;;;;;;18.86;37.87;95590.22;10427554;28;2703;-50
2022/11/25 04:09:32;;;;;;;;;;;;;;;18.92;38.19;95594.41;10437277;28;2734;-48
2022/11/25 04:14:34;;;;;;;;;;;;;;;18.89;37.70;95596.78;10434466;28;2767;-53
2022/11/25 04:19:34;;;;;;;;;;;;;;;18.84;37.79;95597.56;10441165;28;2743;-47
2022/11/25 04:24:35;;;;;;;;;;;;;;;18.87;38.02;95604.94;10424818;28;2792;-50
2022/11/25 04:29:35;;;;;;;;;;;;;;;18.88;37.98;95595.97;10429004;28;2818;-52
2022/11/25 04:34:36;;;;;;;;;;;;;;;18.86;38.10;95595.47;10430926;28;2762;-51
2022/11/25 04:39:36;;;;;;;;;;;;;;;18.90;38.23;95614.88;10441060;28;2904;-52
2022/11/25 04:44:36;;;;;;;;;;;;;;;18.93;38.11;95619.63;10437042;28;2710;-51
2022/11/25 04:49:36;;;;;;;;;;;;;;;18.91;37.77;95613.06;10428464;28;2754;-49
2022/11/25 04:54:37;;;;;;;;;;;;;;;18.88;37.89;95624.88;10430187;28;2704;-47
2022/11/25 04:59:40;;;;;;;;;;;;;;;18.91;37.83;95607.81;10429557;28;2766;-48
2022/11/25 05:04:41;;;;;;;;;;;;;;;18.91;37.81;95611.22;10430022;28;2741;-48
2022/11/25 05:09:41;;;;;;;;;;;;;;;18.89;37.30;95613.31;10432576;28;2750;-53
2022/11/25 05:14:41;;;;;;;;;;;;;;;18.89;37.18;95608.06;10428724;28;2750;-52
2022/11/25 05:19:42;;;;;;;;;;;;;;;18.89;37.20;95615.94;10442752;28;2710;-52
2022/11/25 05:24:43;;;;;;;;;;;;;;;18.93;36.89;95611.75;10440986;28;2753;-51
2022/11/25 05:29:43;;;;;;;;;;;;;;;18.94;37.03;95625.66;10415265;28;2699;-51
2022/11/25 05:34:46;;;;;;;;;;;;;;;18.98;37.54;95616.19;10442342;28;3043;-50
2022/11/25 05:39:47;;;;;;;;;;;;;;;19.00;37.64;95621.97;10439762;28;2782;-49
2022/11/25 05:44:47;;;;;;;;;;;;;;;19.04;38.27;95617.75;10441244;28;2816;-50
2022/11/25 05:49:47;;;;;;;;;;;;;;;19.04;38.52;95615.13;10445637;28;2748;-46
2022/11/25 05:54:48;;;;;;;;;;;;;;;19.06;38.46;95619.03;10441790;28;3029;-47
2022/11/25 05:59:48;;;;;;;;;;;;;;;19.08;37.63;95632.69;10439530;28;2742;-50
2022/11/25 06:04:48;;;;;;;;;;;;;;;19.09;37.36;95639.53;10437053;28;2794;-51
2022/11/25 06:09:49;;;;;;;;;;;;;;;19.12;37.32;95633.78;10432334;28;2760;-51
2022/11/25 06:14:49;;;;;;;;;;;;;;;19.15;37.24;95627.19;10429996;28;2687;-49
2022/11/25 06:19:49;;;;;;;;;;;;;;;19.17;37.32;95623.22;10438473;28;2723;-48
2022/11/25 06:24:50;;;;;;;;;;;;;;;19.20;37.14;95630.59;10439658;28;2735;-48
2022/11/25 06:29:50;;;;;;;;;;;;;;;19.20;37.27;95617.47;10442781;28;2813;-47
2022/11/25 06:34:50;;;;;;;;;;;;;;;19.23;37.27;95622.16;10440362;28;2829;-47
2022/11/25 06:39:51;;;;;;;;;;;;;;;19.23;37.19;95619.53;10438265;28;2706;-48
2022/11/25 06:44:51;;;;;;;;;;;;;;;19.27;38.13;95620.56;10428842;28;3016;-50
2022/11/25 06:49:52;;;;;;;;;;;;;;;19.29;37.42;95623.72;10435828;28;2787;-49
2022/11/25 06:54:52;;;;;;;;;;;;;;;19.29;36.90;95633.44;10437159;28;2757;-49
2022/11/25 06:59:53;;;;;;;;;;;;;;;19.31;36.76;95629.50;10445009;28;2759;-47
2022/11/25 07:04:53;;;;;;;;;;;;;;;19.32;37.05;95622.41;10437854;28;2756;-49
2022/11/25 07:09:53;;;;;;;;;;;;;;;19.33;36.87;95619.53;10438651;28;2835;-51
2022/11/25 07:14:54;;;;;;;;;;;;;;;19.35;37.07;95627.94;10432435;28;2832;-46
2022/11/25 07:19:54;;;;;;;;;;;;;;;19.38;36.98;95631.88;10443946;28;2741;-51
2022/11/25 07:24:54;;;;;;;;;;;;;;;19.40;37.21;95641.06;10441593;28;2708;-49
2022/11/25 07:29:54;;;;;;;;;;;;;;;19.42;37.14;95646.84;10441139;28;2675;-47
2022/11/25 07:34:55;;;;;;;;;;;;;;;19.43;37.12;95643.16;10435216;28;2739;-50
2022/11/25 07:39:55;;;;;;;;;;;;;;;19.43;37.02;95643.16;10410078;28;2769;-45
2022/11/25 07:44:55;;;;;;;;;;;;;;;19.44;37.18;95642.09;10411250;28;2835;-46
2022/11/25 07:49:57;;;;;;;;;;;;;;;19.45;36.92;95646.28;10438388;28;2815;-45
2022/11/25 07:54:57;;;;;;;;;;;;;;;19.47;36.85;95651.31;10435140;28;2743;-46
2022/11/25 07:59:58;;;;;;;;;;;;;;;19.47;37.09;95659.94;10442781;28;2101;-46
2022/11/25 08:05:00;;;;;;;;;;;;;;;19.48;37.08;95666.00;10439664;28;2442;-47
2022/11/25 08:10:01;;;;;;;;;;;;;;;19.50;38.22;95677.03;10435143;28;2459;-49
2022/11/25 08:15:09;;;;;;;;;;;;;;;19.53;37.54;95667.84;10431728;28;2490;-49
2022/11/25 08:20:10;;;;;;;;;;;;;;;19.51;37.29;95657.59;10429542;28;3153;-49
2022/11/25 08:25:10;;;;;;;;;;;;;;;19.51;37.19;95656.81;10430159;28;2446;-48
2022/11/25 08:30:11;;;;;;;;;;;;;;;19.48;37.04;95656.28;10424131;28;2512;-47
2022/11/25 08:35:12;;;;;;;;;;;;;;;19.47;37.23;95661.81;10435076;28;2478;-50
2022/11/25 08:40:12;;;;;;;;;;;;;;;19.47;37.23;95667.84;10429534;28;2484;-50
2022/11/25 08:45:12;;;;;;;;;;;;;;;19.52;38.04;95663.63;10420869;28;2709;-50
2022/11/25 08:50:13;;;;;;;;;;;;;;;19.48;38.08;95685.19;10436536;28;2439;-50
2022/11/25 08:55:13;;;;;;;;;;;;;;;19.47;37.55;95698.63;10440067;28;2513;-51
2022/11/25 09:00:14;;;;;;;;;;;;;;;19.45;38.56;95716.50;10434139;28;2504;-50
2022/11/25 09:05:14;;;;;;;;;;;;;;;19.43;38.40;95719.38;10442296;28;2589;-50
2022/11/25 09:10:16;;;;;;;;;;;;;;;19.45;38.75;95733.03;10443056;28;2395;-49
2022/11/25 09:15:16;;;;;;;;;;;;;;;19.44;38.73;95728.06;10435445;28;2468;-51
2022/11/25 09:20:17;;;;;;;;;;;;;;;19.43;38.96;95740.41;10443874;28;2440;-49
2022/11/25 09:25:17;;;;;;;;;;;;;;;19.42;38.85;95738.84;10441176;28;2484;-53
2022/11/25 09:30:17;;;;;;;;;;;;;;;19.42;38.94;95741.47;10436780;28;2469;-49
2022/11/25 09:35:18;;;;;;;;;;;;;;;19.40;39.07;95746.22;10436043;28;2459;-50
2022/11/25 09:40:21;;;;;;;;;;;;;;;19.44;38.92;95736.75;10427408;28;2489;-51
2022/11/25 09:51:00;;;;;;;;;;;;;;;19.40;38.95;95733.06;10437251;28;2479;-52
2022/11/25 09:56:01;;;;;;;;;;;;;;;19.39;39.19;95731.47;10438277;28;2534;-49
2022/11/25 10:01:13;;;;;;;;;;;;;;;19.40;39.17;95745.41;10439227;28;2581;-49
2022/11/25 10:06:16;;;;;;;;;;;;;;;19.37;39.20;95730.19;10442749;28;2419;-51
2022/11/25 10:11:19;;;;;;;;;;;;;;;19.34;39.34;95739.38;10437776;28;2426;-51
2022/11/25 10:16:19;;;;;;;;;;;;;;;19.34;39.62;95742.03;10433923;28;2478;-51
2022/11/25 10:21:21;;;;;;;;;;;;;;;19.33;39.60;95743.06;10440952;28;2471;-52
2022/11/25 10:26:21;;;;;;;;;;;;;;;19.27;39.83;95743.28;10440771;28;2528;-48
2022/11/25 10:31:27;;;;;;;;;;;;;;;19.25;39.65;95740.16;10434429;28;2393;-52
2022/11/25 10:36:29;;;;;;;;;;;;;;;19.22;39.78;95738.84;10439695;28;2491;-53
2022/11/25 10:41:31;;;;;;;;;;;;;;;19.34;39.97;95752.53;10439596;28;2466;-54
2022/11/25 10:46:36;;;;;;;;;;;;;;;19.41;39.71;95737.25;10434220;28;2429;-53
2022/11/25 10:51:38;;;;;;;;;;;;;;;19.45;39.94;95740.16;10445859;28;2587;-52
2022/11/25 10:56:43;;;;;;;;;;;;;;;19.54;39.74;95741.19;10436411;28;2582;-52
2022/11/25 11:01:43;;;;;;;;;;;;;;;19.46;39.90;95733.84;10432745;28;2522;-53
2022/11/25 11:06:44;;;;;;;;;;;;;;;19.46;39.81;95728.56;10433292;28;2549;-51
2022/11/25 11:11:46;;;;;;;;;;;;;;;19.44;39.82;95720.97;10434369;28;2455;-55
2022/11/25 11:16:54;;;;;;;;;;;;;;;19.43;39.76;95729.13;10433796;28;2465;-50
2022/11/25 11:21:55;;;;;;;;;;;;;;;19.39;39.79;95733.34;10432454;28;2491;-51
2022/11/25 11:27:03;;;;;;;;;;;;;;;19.35;39.73;95733.06;10425024;28;2403;-54
2022/11/25 11:32:04;;;;;;;;;;;;;;;19.31;39.89;95725.94;10428620;28;2464;-52
2022/11/25 11:37:15;;;;;;;;;;;;;;;19.15;40.38;95727.81;10438801;28;2507;-59
2022/11/25 11:42:31;;;;;;;;;;;;;;;18.99;40.68;95728.88;10435558;28;2417;-48
2022/11/25 11:47:50;;;;;;;;;;;;;;;19.05;40.81;95727.81;10436913;28;2152;-51
2022/11/25 11:52:50;;;;;;;;;;;;;;;19.07;40.85;95725.72;10445610;28;2464;-54
2022/11/25 11:58:09;;;;;;;;;;;;;;;19.04;40.88;95730.72;10434432;28;2594;-55
2022/11/25 12:03:11;;;;;;;;;;;;;;;19.01;40.91;95721.53;10431685;28;2428;-50
2022/11/25 12:08:13;;;;;;;;;;;;;;;19.06;41.06;95721.50;10438475;28;2389;-54
2022/11/25 12:13:33;;;;;;;;;;;;;;;19.07;41.28;95724.94;10435847;28;2547;-52
2022/11/25 12:19:00;;;;;;;;;;;;;;;19.09;41.26;95728.88;10429410;28;2397;-54
2022/11/25 12:24:03;;;;;;;;;;;;;;;19.10;41.71;95722.56;10433617;28;2510;-54
2022/11/25 12:29:07;;;;;;;;;;;;;;;19.14;41.35;95721.00;10435136;28;2700;-52
2022/11/25 12:34:12;;;;;;;;;;;;;;;19.16;41.66;95713.63;10440842;28;2580;-51
2022/11/25 12:39:20;;;;;;;;;;;;;;;19.17;41.76;95715.19;10433722;28;2443;-54
2022/11/25 12:44:27;;;;;;;;;;;;;;;19.19;42.17;95714.94;10428525;28;2441;-52
2022/11/25 12:49:28;;;;;;;;;;;;;;;19.20;42.00;95713.88;10439327;28;2488;-55
2022/11/25 12:54:47;;;;;;;;;;;;;;;19.23;42.00;95710.72;10440445;28;2403;-52
2022/11/25 12:59:49;;;;;;;;;;;;;;;19.19;41.99;95720.97;10432495;28;2424;-54
2022/11/25 13:05:19;;;;;;;;;;;;;;;19.28;41.57;95719.41;10432022;28;2491;-62
2022/11/25 13:10:31;;;;;;;;;;;;;;;19.30;41.68;95712.03;10415885;28;2543;-60
2022/11/25 13:15:40;;;;;;;;;;;;;;;19.34;41.88;95715.75;10439916;28;2502;-54
2022/11/25 13:20:40;;;;;;;;;;;;;;;19.29;42.02;95720.97;10428724;28;2364;-60
2022/11/25 13:25:41;;;;;;;;;;;;;;;19.25;42.14;95724.38;10436578;28;2479;-54
2022/11/25 13:30:42;;;;;;;;;;;;;;;19.34;43.03;95726.25;10413402;28;2491;-62
2022/11/25 13:35:42;;;;;;;;;;;;;;;19.31;42.69;95732.00;10445495;28;2414;-52
2022/11/25 13:40:42;;;;;;;;;;;;;;;19.31;42.26;95737.25;10442869;28;2450;-62
2022/11/25 13:45:43;;;;;;;;;;;;;;;19.35;42.30;95738.31;10447905;28;2547;-55
2022/11/25 13:50:43;;;;;;;;;;;;;;;19.36;42.05;95739.91;10441736;28;2485;-51
2022/11/25 13:55:43;;;;;;;;;;;;;;;19.44;40.96;95741.19;10444164;28;2509;-54
2022/11/25 14:00:56;;;;;;;;;;;;;;;19.57;40.77;95742.50;10439933;28;2499;-53
2022/11/25 14:05:56;;;;;;;;;;;;;;;19.62;41.47;95748.50;10439775;28;2516;-55
2022/11/25 14:11:09;;;;;;;;;;;;;;;19.69;40.91;95756.13;10439478;28;2436;-55
2022/11/25 14:16:18;;;;;;;;;;;;;;;19.72;40.26;95761.63;10438100;28;2454;-55
2022/11/25 14:21:37;;;;;;;;;;;;;;;19.46;37.67;95770.63;10444901;28;2453;-58
2022/11/25 14:26:39;;;;;;;;;;;;;;;18.88;37.37;95771.94;10449036;28;2814;-57
2022/11/25 14:31:49;;;;;;;;;;;;;;;19.31;39.31;95784.56;10439606;28;2458;-58
2022/11/25 14:36:53;;;;;;;;;;;;;;;19.52;39.71;95792.44;10446496;28;2517;-59
2022/11/25 14:41:56;;;;;;;;;;;;;;;19.70;39.87;95812.94;10450413;28;2436;-55
2022/11/25 14:46:56;;;;;;;;;;;;;;;19.89;39.83;95821.81;10444517;28;2413;-57
2022/11/25 14:52:01;;;;;;;;;;;;;;;20.03;39.58;95826.25;10450688;28;2469;-58
2022/11/25 14:57:02;;;;;;;;;;;;;;;20.15;39.70;95845.16;10452736;28;2475;-58
2022/11/25 15:02:02;;;;;;;;;;;;;;;20.27;39.22;95845.72;10451376;28;2515;-59
2022/11/25 15:07:13;;;;;;;;;;;;;;;20.37;39.44;95850.13;10456730;28;2395;-58
2022/11/25 15:12:18;;;;;;;;;;;;;;;20.46;39.05;95864.31;10448166;28;2480;-57
2022/11/25 15:17:21;;;;;;;;;;;;;;;20.55;39.08;95861.91;10451995;28;2431;-58
2022/11/25 15:22:21;;;;;;;;;;;;;;;20.61;39.29;95860.84;10440632;28;2440;-63
2022/11/25 15:27:26;;;;;;;;;;;;;;;20.71;39.17;95872.09;10443147;28;2455;-58
2022/11/25 15:32:27;;;;;;;;;;;;;;;20.75;38.95;95877.63;10444331;28;2458;-58
2022/11/25 15:37:28;;;;;;;;;;;;;;;20.80;39.05;95891.56;10443880;28;2482;-59
2022/11/25 15:42:29;;;;;;;;;;;;;;;20.82;39.04;95894.69;10442443;28;2530;-58
2022/11/25 15:47:30;;;;;;;;;;;;;;;20.85;38.97;95890.75;10448295;28;2413;-58
2022/11/25 15:52:36;;;;;;;;;;;;;;;20.85;38.75;95904.72;10439889;28;2553;-58
2022/11/25 15:57:37;;;;;;;;;;;;;;;20.87;38.99;95907.88;10428864;28;2409;-58
2022/11/25 16:02:38;;;;;;;;;;;;;;;20.89;38.99;95910.22;10432861;28;2510;-56
2022/11/25 16:07:48;;;;;;;;;;;;;;;20.88;38.74;95922.59;10433838;28;2532;-57
2022/11/25 16:13:07;;;;;;;;;;;;;;;20.89;38.79;95920.75;10431586;28;2459;-57
2022/11/25 16:18:10;;;;;;;;;;;;;;;20.92;38.85;95928.91;10437404;28;2553;-57
2022/11/25 16:23:10;;;;;;;;;;;;;;;20.89;38.91;95934.72;10451413;28;2394;-54
2022/11/25 16:28:20;;;;;;;;;;;;;;;20.95;38.67;95941.56;10462053;28;2427;-54
2022/11/25 16:33:20;;;;;;;;;;;;;;;20.93;38.74;95942.88;10426759;28;2456;-54
2022/11/25 16:38:21;;;;;;;;;;;;;;;20.89;38.73;95947.91;10435079;28;2373;-52
2022/11/25 16:43:22;;;;;;;;;;;;;;;20.84;38.70;95953.19;10441229;28;2762;-51
2022/11/25 16:48:22;;;;;;;;;;;;;;;20.82;39.02;95962.41;10446849;28;2513;-54
2022/11/25 16:53:22;;;;;;;;;;;;;;;20.75;39.15;95973.22;10438557;28;2413;-54
2022/11/25 16:58:28;;;;;;;;;;;;;;;20.70;39.04;95983.81;10433014;28;2462;-54
2022/11/25 17:03:29;;;;;;;;;;;;;;;20.68;39.07;95988.56;10427878;28;2419;-52
2022/11/25 17:08:29;;;;;;;;;;;;;;;20.65;39.20;96001.47;10434001;28;2572;-54
2022/11/25 17:13:29;;;;;;;;;;;;;;;20.64;39.33;96019.13;10430290;28;2457;-54
2022/11/25 17:18:29;;;;;;;;;;;;;;;20.60;39.16;96022.53;10417625;28;2485;-50
2022/11/25 17:23:30;;;;;;;;;;;;;;;20.55;39.55;96028.59;10447435;28;2448;-54
2022/11/25 17:28:30;;;;;;;;;;;;;;;20.56;39.41;96043.38;10444244;28;2446;-54
2022/11/25 17:33:30;;;;;;;;;;;;;;;20.55;39.49;96048.88;10447606;28;2373;-55
2022/11/25 17:38:30;;;;;;;;;;;;;;;20.51;39.53;96058.38;10449745;28;2531;-55
2022/11/25 17:43:31;;;;;;;;;;;;;;;20.48;39.32;96062.34;10438246;28;2726;-52
2022/11/25 17:48:31;;;;;;;;;;;;;;;20.50;39.16;96068.13;10434771;28;2456;-54
2022/11/25 17:53:36;;;;;;;;;;;;;;;20.49;39.31;96073.63;10434509;28;2481;-55
2022/11/25 17:58:36;;;;;;;;;;;;;;;20.47;39.52;96076.53;10446067;28;2545;-51
2022/11/25 18:03:37;;;;;;;;;;;;;;;20.46;39.48;96090.78;10442343;28;2464;-54
2022/11/25 18:08:37;;;;;;;;;;;;;;;20.43;39.26;96091.28;10430485;28;2449;-55
2022/11/25 18:13:47;;;;;;;;;;;;;;;20.47;39.32;96099.44;10434503;28;2406;-53
2022/11/25 18:18:48;;;;;;;;;;;;;;;20.41;39.76;96114.47;10440144;28;2578;-54
2022/11/25 18:23:48;;;;;;;;;;;;;;;20.42;39.63;96125.81;10447092;28;2477;-54
2022/11/25 18:28:48;;;;;;;;;;;;;;;20.41;39.32;96118.94;10443585;28;2536;-53
2022/11/25 18:33:49;;;;;;;;;;;;;;;20.38;39.52;96120.25;10433772;28;2564;-54
2022/11/25 18:38:50;;;;;;;;;;;;;;;20.40;39.28;96127.91;10431373;28;2548;-54
2022/11/25 18:43:50;;;;;;;;;;;;;;;20.37;39.50;96121.31;10437194;28;2488;-54
2022/11/25 18:48:53;;;;;;;;;;;;;;;20.36;39.50;96129.47;10433016;28;2485;-52
2022/11/25 18:53:53;;;;;;;;;;;;;;;20.35;39.55;96136.59;10439909;28;2492;-54
2022/11/25 18:58:54;;;;;;;;;;;;;;;20.31;39.78;96132.91;10447599;28;2462;-53
2022/11/25 19:03:54;;;;;;;;;;;;;;;20.32;39.46;96152.88;10443068;28;2505;-54
2022/11/25 19:08:54;;;;;;;;;;;;;;;20.35;39.54;96147.13;10442944;28;2493;-55
2022/11/25 19:13:56;;;;;;;;;;;;;;;20.34;39.65;96156.06;10435589;28;2425;-56
2022/11/25 19:18:57;;;;;;;;;;;;;;;20.31;39.73;96169.75;10436051;28;2429;-53
2022/11/25 19:24:05;;;;;;;;;;;;;;;20.31;39.40;96182.91;10435890;28;2431;-53
2022/11/25 19:29:08;;;;;;;;;;;;;;;20.30;39.64;96185.81;10434086;28;2461;-54
2022/11/25 19:34:09;;;;;;;;;;;;;;;20.31;39.48;96196.09;10437348;28;2483;-54
2022/11/25 19:39:14;;;;;;;;;;;;;;;20.32;39.55;96204.78;10432288;28;2517;-55
2022/11/25 19:44:14;;;;;;;;;;;;;;;20.30;39.31;96218.19;10439210;28;2493;-52
2022/11/25 19:49:15;;;;;;;;;;;;;;;20.27;39.68;96224.78;10436678;28;2419;-53
2022/11/25 19:54:16;;;;;;;;;;;;;;;20.23;39.49;96230.81;10439597;28;2491;-53
2022/11/25 19:59:16;;;;;;;;;;;;;;;20.23;39.46;96243.97;10438396;28;2545;-56
2022/11/25 20:04:18;;;;;;;;;;;;;;;20.21;39.43;96252.16;10434841;28;2401;-54
2022/11/25 20:09:18;;;;;;;;;;;;;;;20.18;39.49;96263.16;10438190;28;2470;-55
2022/11/25 20:14:18;;;;;;;;;;;;;;;20.20;39.65;96270.81;10429944;28;2415;-55
2022/11/25 20:19:19;;;;;;;;;;;;;;;20.18;39.49;96284.19;10436666;28;2615;-54
2022/11/25 20:24:19;;;;;;;;;;;;;;;20.18;39.55;96278.94;10442855;28;2473;-53
2022/11/25 20:29:20;;;;;;;;;;;;;;;20.15;39.61;96289.97;10432191;28;2507;-55
2022/11/25 20:34:27;;;;;;;;;;;;;;;20.14;39.50;96309.47;10432950;28;2393;-54
2022/11/25 20:39:27;;;;;;;;;;;;;;;20.16;39.55;96317.09;10440184;28;2452;-52
2022/11/25 20:44:28;;;;;;;;;;;;;;;20.14;39.58;96312.09;10428671;28;2491;-56
2022/11/25 20:49:28;;;;;;;;;;;;;;;20.12;39.50;96332.63;10433456;28;2475;-55
2022/11/25 20:54:32;;;;;;;;;;;;;;;20.10;39.64;96336.53;10428699;28;2435;-56
2022/11/25 20:59:32;;;;;;;;;;;;;;;20.12;39.49;96345.78;10435191;28;2487;-55
2022/11/25 21:04:32;;;;;;;;;;;;;;;20.10;39.39;96357.59;10432340;28;2478;-54
2022/11/25 21:09:33;;;;;;;;;;;;;;;20.08;39.59;96354.44;10431792;28;2481;-55
2022/11/25 21:14:33;;;;;;;;;;;;;;;20.07;39.50;96361.53;10423656;28;2535;-52
2022/11/25 21:19:34;;;;;;;;;;;;;;;20.08;39.47;96364.94;10428888;28;2484;-53
2022/11/25 21:24:37;;;;;;;;;;;;;;;20.07;39.46;96379.19;10427639;28;2509;-56
2022/11/25 21:29:38;;;;;;;;;;;;;;;20.07;39.67;96379.19;10437702;28;2421;-52
2022/11/25 21:34:38;;;;;;;;;;;;;;;20.02;39.50;96385.19;10428382;28;2497;-54
2022/11/25 21:39:39;;;;;;;;;;;;;;;20.04;39.57;96387.56;10434765;28;2437;-53
2022/11/25 21:44:39;;;;;;;;;;;;;;;20.01;39.70;96386.22;10449946;28;2551;-52
2022/11/25 21:49:39;;;;;;;;;;;;;;;20.03;39.50;96392.03;10440358;28;2481;-53
2022/11/25 21:54:40;;;;;;;;;;;;;;;19.98;39.64;96397.28;10437648;28;2455;-52
2022/11/25 21:59:41;;;;;;;;;;;;;;;19.99;39.48;96409.38;10423558;28;2472;-55
2022/11/25 22:04:42;;;;;;;;;;;;;;;19.94;39.90;96406.72;10431248;28;2467;-53
2022/11/25 22:09:42;;;;;;;;;;;;;;;19.95;39.75;96420.66;10442277;28;2429;-56
2022/11/25 22:14:42;;;;;;;;;;;;;;;19.92;40.21;96426.44;10436422;28;2563;-53
2022/11/25 22:19:44;;;;;;;;;;;;;;;19.91;39.86;96430.09;10434147;28;2478;-52
2022/11/25 22:24:44;;;;;;;;;;;;;;;19.93;39.87;96433.28;10442545;28;2496;-54
2022/11/25 22:29:45;;;;;;;;;;;;;;;19.92;40.06;96436.97;10444346;28;2498;-56
2022/11/25 22:34:45;;;;;;;;;;;;;;;19.91;39.90;96451.16;10447429;28;2418;-55
2022/11/25 22:39:46;;;;;;;;;;;;;;;19.91;39.61;96445.88;10437951;28;2439;-54
2022/11/25 22:44:46;;;;;;;;;;;;;;;19.91;39.99;96459.84;10439281;28;2468;-53
2022/11/25 22:49:46;;;;;;;;;;;;;;;19.88;39.94;96451.66;10432206;28;2554;-54
2022/11/25 22:54:47;;;;;;;;;;;;;;;19.90;40.13;96460.91;10432707;28;2504;-54
2022/11/25 22:59:47;;;;;;;;;;;;;;;19.86;40.16;96451.13;10436534;28;2493;-54
2022/11/25 23:04:49;;;;;;;;;;;;;;;19.84;39.99;96454.03;10444538;28;2441;-54
2022/11/25 23:09:49;;;;;;;;;;;;;;;19.84;39.95;96461.91;10441184;28;2459;-53
2022/11/25 23:14:50;;;;;;;;;;;;;;;19.83;39.93;96467.41;10432483;28;2430;-55
2022/11/25 23:19:50;;;;;;;;;;;;;;;19.81;40.01;96462.41;10435743;28;2464;-55
2022/11/25 23:24:51;;;;;;;;;;;;;;;19.74;40.42;96471.56;10437548;28;2415;-56
2022/11/25 23:29:51;;;;;;;;;;;;;;;19.74;40.53;96471.56;10439400;28;2549;-55
2022/11/25 23:34:52;;;;;;;;;;;;;;;19.73;40.36;96467.31;10443900;28;2418;-54
2022/11/25 23:39:52;;;;;;;;;;;;;;;19.71;40.56;96472.84;10441167;28;2582;-53
2022/11/25 23:44:53;;;;;;;;;;;;;;;19.70;40.47;96471.25;10433520;28;2416;-55
2022/11/25 23:49:53;;;;;;;;;;;;;;;19.68;40.51;96472.56;10433493;28;2482;-54
2022/11/25 23:55:04;;;;;;;;;;;;;;;19.67;40.39;96478.84;10420238;28;2457;-56
